Time;durP1;ratioP1;P1;durP2;ratioP2;P2;SDS_P1;SDS_P2;PMS_P1;PMS_P2;Temp;Humidity;BMP_temperature;BMP_pressure;BME280_temperature;BME280_humidity;BME280_pressure;Samples;Min_cycle;Max_cycle;Signal;HPM_P1;HPM_P2
2023/07/31 00:01:55;;;;;;;0.20;0.20;;;;;;;21.18;60.33;99377.03;4449927;32;20165;-92
2023/07/31 00:04:27;;;;;;;0.05;0.03;;;;;;;21.16;60.31;99385.09;4424591;32;20201;-91
2023/07/31 00:06:53;;;;;;;0.32;0.17;;;;;;;21.04;60.31;99378.16;4424639;32;20155;-92
2023/07/31 00:09:18;;;;;;;0.20;0.20;;;;;;;20.97;60.31;99383.09;4437003;32;20491;-91
2023/07/31 00:11:44;;;;;;;0.37;0.37;;;;;;;20.98;60.31;99382.13;4424248;32;20496;-93
2023/07/31 00:14:09;;;;;;;0.30;0.30;;;;;;;21.05;60.31;99378.03;4424254;32;20409;-94
2023/07/31 00:16:35;;;;;;;0.03;0.03;;;;;;;21.15;60.32;99375.47;4424222;32;20142;-92
2023/07/31 00:19:00;;;;;;;0.03;0.03;;;;;;;20.98;60.31;99368.91;4436990;32;20136;-93
2023/07/31 00:21:25;;;;;;;2.28;0.60;;;;;;;21.12;60.32;99376.56;4424093;32;20626;-91
2023/07/31 00:23:51;;;;;;;0.10;0.10;;;;;;;21.04;60.32;99383.44;4436637;32;20488;-90
2023/07/31 00:26:16;;;;;;;0.05;0.05;;;;;;;21.16;60.31;99382.47;4449222;32;20136;-90
2023/07/31 00:28:42;;;;;;;0.45;0.45;;;;;;;21.21;60.32;99388.22;4436668;32;20400;-90
2023/07/31 00:31:07;;;;;;;0.10;0.10;;;;;;;21.24;60.32;99382.69;4436806;32;20106;-91
2023/07/31 00:33:34;;;;;;;0.00;0.00;;;;;;;21.14;60.32;99385.22;4423889;32;20125;-91
2023/07/31 00:36:00;;;;;;;0.00;0.00;;;;;;;21.21;60.32;99385.56;4424806;32;20128;-92
2023/07/31 00:38:25;;;;;;;0.15;0.15;;;;;;;21.28;60.33;99385.94;4425591;32;20446;-91
2023/07/31 00:40:50;;;;;;;0.73;0.57;;;;;;;21.20;60.33;99394.47;4425310;32;20566;-91
2023/07/31 00:43:16;;;;;;;0.28;0.28;;;;;;;21.17;60.32;99392.06;4425596;32;20121;-92
2023/07/31 00:45:41;;;;;;;0.22;0.22;;;;;;;21.11;60.32;99390.78;4425828;32;20117;-91
2023/07/31 00:48:07;;;;;;;0.00;0.00;;;;;;;20.95;60.32;99387.69;4413255;32;20131;-91
2023/07/31 00:50:32;;;;;;;2.08;1.52;;;;;;;20.96;60.31;99392.00;4426281;32;20101;-91
2023/07/31 00:52:57;;;;;;;0.17;0.17;;;;;;;21.04;60.32;99400.16;4427486;32;20393;-91
2023/07/31 00:55:23;;;;;;;3.70;0.65;;;;;;;20.98;60.31;99391.87;4426070;32;20348;-91
2023/07/31 00:57:48;;;;;;;0.62;0.40;;;;;;;20.91;60.31;99388.91;4413091;32;20154;-91
2023/07/31 01:00:14;;;;;;;0.05;0.05;;;;;;;20.89;60.30;99390.81;4425811;32;22943;-92
2023/07/31 01:02:39;;;;;;;0.08;0.08;;;;;;;20.79;60.31;99395.16;4425463;32;25111;-91
2023/07/31 01:05:05;;;;;;;0.10;0.10;;;;;;;20.79;60.31;99395.16;4413635;32;20134;-91
2023/07/31 01:07:35;;;;;;;0.00;0.00;;;;;;;20.67;60.30;99396.97;4426564;32;20168;-91
2023/07/31 01:10:21;;;;;;;0.22;0.22;;;;;;;20.53;60.28;99394.56;4439591;32;20101;-93
2023/07/31 01:12:46;;;;;;;0.00;0.00;;;;;;;20.70;60.29;99396.72;4426816;32;20101;-93
2023/07/31 01:15:12;;;;;;;0.00;0.00;;;;;;;20.59;60.29;99404.69;4426672;32;20089;-92
2023/07/31 01:17:38;;;;;;;0.00;0.00;;;;;;;20.51;60.28;99417.66;4413876;32;20098;-91
2023/07/31 01:20:05;;;;;;;0.55;0.45;;;;;;;20.54;60.28;99420.06;4426532;32;20111;-92
2023/07/31 01:23:01;;;;;;;0.00;0.00;;;;;;;20.36;60.28;99427.59;4413996;32;20174;-92
2023/07/31 01:26:00;;;;;;;0.00;0.00;;;;;;;20.50;60.29;99423.91;4426729;32;20116;-91
2023/07/31 01:28:42;;;;;;;0.47;0.20;;;;;;;20.40;60.29;99417.62;4426583;32;20161;-92
2023/07/31 01:31:08;;;;;;;0.65;0.55;;;;;;;20.52;60.28;99416.69;4426394;32;20132;-92
2023/07/31 01:33:33;;;;;;;0.45;0.45;;;;;;;20.43;60.28;99414.78;4413730;32;20109;-92
2023/07/31 01:35:59;;;;;;;0.73;0.70;;;;;;;20.52;60.28;99409.59;4413310;32;20097;-91
2023/07/31 01:38:24;;;;;;;0.00;0.00;;;;;;;20.48;60.29;99397.59;4426403;32;20120;-91
2023/07/31 01:40:53;;;;;;;0.22;0.20;;;;;;;20.45;60.28;99397.81;4426293;32;20169;-91
2023/07/31 01:43:18;;;;;;;0.28;0.28;;;;;;;20.60;60.29;99397.59;4426353;32;20105;-91
2023/07/31 01:45:44;;;;;;;0.30;0.30;;;;;;;20.59;60.29;99396.75;4426285;32;20077;-91
2023/07/31 01:48:09;;;;;;;0.00;0.00;;;;;;;20.39;60.27;99390.34;4438084;32;20099;-91
2023/07/31 01:50:35;;;;;;;0.35;0.32;;;;;;;20.41;60.28;99387.62;4426192;32;20144;-91
2023/07/31 01:53:00;;;;;;;0.17;0.17;;;;;;;20.35;60.28;99378.34;4426246;32;20525;-90
2023/07/31 01:55:26;;;;;;;0.32;0.32;;;;;;;20.72;60.30;99380.75;4425838;32;20128;-91
2023/07/31 01:57:52;;;;;;;0.00;0.00;;;;;;;20.55;60.28;99374.13;4426118;32;20119;-91
2023/07/31 02:00:17;;;;;;;0.40;0.20;;;;;;;20.58;60.29;99375.69;4425969;32;20166;-90
2023/07/31 02:02:43;;;;;;;0.00;0.00;;;;;;;20.61;60.29;99373.69;4426197;32;20113;-91
2023/07/31 02:05:08;;;;;;;0.28;0.28;;;;;;;20.42;60.28;99379.56;4425928;32;20112;-90
2023/07/31 02:07:33;;;;;;;0.00;0.00;;;;;;;20.50;60.28;99382.44;4425355;32;25075;-90
2023/07/31 02:09:59;;;;;;;0.05;0.05;;;;;;;20.51;60.28;99380.62;4413348;32;20133;-90
2023/07/31 02:12:24;;;;;;;0.20;0.20;;;;;;;20.59;60.29;99382.69;4413291;32;20137;-90
2023/07/31 02:14:50;;;;;;;0.00;0.00;;;;;;;20.68;60.30;99384.59;4438966;32;20156;-91
2023/07/31 02:17:15;;;;;;;0.20;0.20;;;;;;;20.61;60.29;99381.59;4426018;32;20356;-90
2023/07/31 02:19:41;;;;;;;0.30;0.22;;;;;;;20.68;60.30;99385.44;4413135;32;20502;-90
2023/07/31 02:22:06;;;;;;;0.00;0.00;;;;;;;20.70;60.29;99391.44;4426038;32;20477;-90
2023/07/31 02:24:31;;;;;;;0.15;0.15;;;;;;;20.57;60.29;99389.88;4426067;32;20081;-90
2023/07/31 02:26:57;;;;;;;0.00;0.00;;;;;;;20.77;60.30;99384.69;4425855;32;20086;-90
2023/07/31 02:29:22;;;;;;;0.00;0.00;;;;;;;20.66;60.30;99389.16;4425543;32;20101;-90
2023/07/31 02:31:48;;;;;;;0.00;0.00;;;;;;;20.62;60.29;99393.03;4413249;32;20132;-89
2023/07/31 02:34:13;;;;;;;0.00;0.00;;;;;;;20.56;60.29;99398.78;4413447;32;20082;-90
2023/07/31 02:36:39;;;;;;;0.37;0.37;;;;;;;20.32;60.28;99417.38;4441977;32;20116;-91
2023/07/31 02:39:04;;;;;;;0.00;0.00;;;;;;;20.35;60.28;99409.22;4426868;32;20105;-93
2023/07/31 02:41:30;;;;;;;0.00;0.00;;;;;;;20.37;60.28;99408.13;4439153;32;20140;-92
2023/07/31 02:43:55;;;;;;;0.25;0.25;;;;;;;20.50;60.29;99402.75;4425703;32;20093;-92
2023/07/31 02:46:24;;;;;;;0.00;0.00;;;;;;;20.57;60.28;99409.22;4425780;32;20136;-92
2023/07/31 02:48:49;;;;;;;0.13;0.13;;;;;;;20.35;60.28;99423.28;4426122;32;20110;-92
2023/07/31 02:51:15;;;;;;;0.20;0.20;;;;;;;20.29;60.27;99428.19;4438647;32;20093;-92
2023/07/31 02:53:40;;;;;;;0.08;0.08;;;;;;;20.39;60.27;99423.88;4425929;32;20081;-91
2023/07/31 02:56:05;;;;;;;2.00;0.28;;;;;;;20.37;60.28;99424.00;4438710;32;20108;-92
2023/07/31 02:58:31;;;;;;;4.28;0.32;;;;;;;20.34;60.28;99421.56;4438318;32;20161;-92
2023/07/31 03:00:58;;;;;;;0.00;0.00;;;;;;;20.14;60.26;99424.94;4438760;32;20161;-91
2023/07/31 03:03:23;;;;;;;0.00;0.00;;;;;;;20.08;60.26;99428.84;4438654;32;20085;-91
2023/07/31 03:05:49;;;;;;;0.10;0.10;;;;;;;20.11;60.27;99430.41;4438765;32;20123;-92
2023/07/31 03:08:15;;;;;;;0.62;0.57;;;;;;;20.07;60.26;99434.25;4425774;32;20162;-91
2023/07/31 03:10:40;;;;;;;0.25;0.25;;;;;;;19.95;60.26;99438.69;4438660;32;20347;-91
2023/07/31 03:13:06;;;;;;;0.03;0.03;;;;;;;20.15;60.26;99431.91;4438639;32;20125;-92
2023/07/31 03:15:31;;;;;;;0.00;0.00;;;;;;;19.89;60.26;99441.81;4425641;32;20115;-91
2023/07/31 03:17:57;;;;;;;0.10;0.10;;;;;;;20.01;60.25;99456.72;4451337;32;20153;-92
2023/07/31 03:20:22;;;;;;;0.00;0.00;;;;;;;19.91;60.25;99451.28;4438581;32;20390;-92
2023/07/31 03:22:48;;;;;;;0.00;0.00;;;;;;;20.06;60.26;99446.63;4425566;32;20093;-92
2023/07/31 03:25:14;;;;;;;0.52;0.52;;;;;;;20.22;60.27;99444.50;4425199;32;21247;-91
2023/07/31 03:27:39;;;;;;;1.42;0.85;;;;;;;20.24;60.27;99452.31;4438507;32;20105;-90
2023/07/31 03:30:05;;;;;;;0.00;0.00;;;;;;;20.07;60.26;99443.03;4425430;32;20446;-91
2023/07/31 03:32:31;;;;;;;0.00;0.00;;;;;;;20.19;60.27;99447.41;4438291;32;20195;-91
2023/07/31 03:34:57;;;;;;;0.45;0.45;;;;;;;19.96;60.26;99453.59;4425476;32;20102;-91
2023/07/31 03:37:22;;;;;;;0.00;0.00;;;;;;;20.13;60.26;99458.44;4425173;32;20127;-91
2023/07/31 03:39:48;;;;;;;0.37;0.20;;;;;;;20.05;60.26;99452.03;4438351;32;20097;-91
2023/07/31 03:42:13;;;;;;;0.00;0.00;;;;;;;19.98;60.26;99456.94;4425456;32;20121;-90
2023/07/31 03:44:38;;;;;;;0.13;0.13;;;;;;;20.31;60.28;99453.53;4425134;32;20089;-92
2023/07/31 03:47:05;;;;;;;0.10;0.10;;;;;;;20.30;60.27;99454.50;4425025;32;20195;-90
2023/07/31 03:49:30;;;;;;;0.00;0.00;;;;;;;20.12;60.27;99453.28;4438321;32;20106;-90
2023/07/31 03:51:56;;;;;;;0.00;0.00;;;;;;;20.24;60.27;99457.59;4425367;32;20143;-90
2023/07/31 03:54:21;;;;;;;0.00;0.00;;;;;;;20.30;60.27;99457.12;4437946;32;20081;-91
2023/07/31 03:56:46;;;;;;;0.00;0.00;;;;;;;20.39;60.28;99453.81;4425172;32;20118;-92
2023/07/31 03:59:12;;;;;;;0.17;0.17;;;;;;;20.28;60.27;99456.41;4438182;32;20195;-91
2023/07/31 04:01:37;;;;;;;0.10;0.10;;;;;;;20.28;60.27;99448.47;4424602;32;20429;-90
2023/07/31 04:04:03;;;;;;;0.22;0.22;;;;;;;20.32;60.28;99454.38;4438141;32;20161;-90
2023/07/31 04:06:28;;;;;;;0.10;0.10;;;;;;;20.36;60.28;99455.84;4437969;32;20097;-91
2023/07/31 04:08:54;;;;;;;0.00;0.00;;;;;;;20.45;60.28;99456.00;4438026;32;20431;-92
2023/07/31 04:11:19;;;;;;;0.00;0.00;;;;;;;20.40;60.29;99454.63;4449939;32;20093;-89
2023/07/31 04:13:44;;;;;;;0.10;0.10;;;;;;;20.74;60.30;99444.94;4450532;32;20112;-88
2023/07/31 04:16:10;;;;;;;2.37;0.85;;;;;;;20.67;60.29;99455.16;4437226;32;24169;-90
2023/07/31 04:18:35;;;;;;;0.00;0.00;;;;;;;20.42;60.28;99450.09;4425481;32;20102;-91
2023/07/31 04:21:02;;;;;;;0.37;0.37;;;;;;;20.36;60.28;99454.03;4425287;32;20153;-91
2023/07/31 04:23:27;;;;;;;0.40;0.40;;;;;;;20.46;60.28;99457.69;4438691;32;20430;-91
2023/07/31 04:25:53;;;;;;;0.10;0.10;;;;;;;20.62;60.29;99451.22;4438356;32;20101;-89
2023/07/31 04:28:18;;;;;;;0.00;0.00;;;;;;;20.74;60.30;99455.53;4437715;32;20486;-90
2023/07/31 04:30:44;;;;;;;0.35;0.20;;;;;;;20.66;60.30;99450.00;4424651;32;20170;-88
2023/07/31 04:33:09;;;;;;;0.00;0.00;;;;;;;20.75;60.30;99449.25;4450080;32;20154;-89
2023/07/31 04:35:34;;;;;;;0.00;0.00;;;;;;;20.83;60.30;99452.16;4437691;32;20409;-88
2023/07/31 04:38:00;;;;;;;0.40;0.30;;;;;;;20.94;60.31;99452.16;4449445;32;20105;-90
2023/07/31 04:40:25;;;;;;;0.25;0.25;;;;;;;20.91;60.31;99454.19;4437060;32;20402;-90
2023/07/31 04:42:51;;;;;;;0.05;0.05;;;;;;;21.06;60.31;99451.19;4438697;32;20117;-90
2023/07/31 04:45:16;;;;;;;0.00;0.00;;;;;;;20.83;60.30;99452.16;4438586;32;20102;-90
2023/07/31 04:47:42;;;;;;;0.00;0.00;;;;;;;21.01;60.31;99444.56;4437418;32;20105;-90
2023/07/31 04:50:08;;;;;;;0.00;0.00;;;;;;;21.14;60.32;99440.81;4437448;32;20124;-90
2023/07/31 04:52:33;;;;;;;0.00;0.00;;;;;;;21.01;60.31;99450.69;4424512;32;20145;-90
2023/07/31 04:54:58;;;;;;;0.00;0.00;;;;;;;20.97;60.31;99457.19;4450180;32;20102;-90
2023/07/31 04:57:24;;;;;;;0.00;0.00;;;;;;;21.07;60.32;99460.81;4424155;32;20161;-88
2023/07/31 04:59:49;;;;;;;0.00;0.00;;;;;;;21.27;60.33;99456.56;4436685;32;20134;-90
2023/07/31 05:02:15;;;;;;;0.20;0.10;;;;;;;21.37;60.33;99446.94;4437052;32;20115;-89
2023/07/31 05:04:40;;;;;;;0.00;0.00;;;;;;;21.41;60.34;99453.66;4450050;32;20367;-90
2023/07/31 05:07:05;;;;;;;3.05;0.50;;;;;;;21.31;60.33;99446.59;4436926;32;20116;-90
2023/07/31 05:09:31;;;;;;;0.00;0.00;;;;;;;21.08;60.32;99449.25;4436829;32;20496;-90
2023/07/31 05:11:56;;;;;;;0.00;0.00;;;;;;;21.06;60.32;99440.59;4423986;32;20153;-90
2023/07/31 05:14:22;;;;;;;1.10;0.37;;;;;;;21.04;60.32;99437.19;4436438;32;22239;-90
2023/07/31 05:16:47;;;;;;;0.57;0.32;;;;;;;20.97;60.31;99438.66;4449769;32;20168;-88
2023/07/31 05:19:12;;;;;;;0.00;0.00;;;;;;;20.90;60.31;99445.41;4436383;32;20415;-89
2023/07/31 05:21:38;;;;;;;0.13;0.13;;;;;;;21.04;60.31;99442.50;4450669;32;20501;-88
2023/07/31 05:24:03;;;;;;;0.00;0.00;;;;;;;20.94;60.30;99440.72;4451930;32;20398;-89
2023/07/31 05:26:29;;;;;;;0.43;0.30;;;;;;;21.00;60.31;99445.50;4438983;32;20097;-90
2023/07/31 05:28:54;;;;;;;0.00;0.00;;;;;;;21.04;60.32;99444.31;4425948;32;20109;-89
2023/07/31 05:31:22;;;;;;;0.47;0.47;;;;;;;21.00;60.31;99438.41;4451972;32;20137;-89
2023/07/31 05:33:47;;;;;;;0.03;0.03;;;;;;;20.97;60.31;99436.03;4426338;32;20171;-89
2023/07/31 05:36:13;;;;;;;0.00;0.00;;;;;;;20.80;60.31;99439.16;4438954;32;20136;-89
2023/07/31 05:38:38;;;;;;;0.20;0.20;;;;;;;20.86;60.30;99446.63;4438921;32;20081;-89
2023/07/31 05:41:04;;;;;;;0.00;0.00;;;;;;;20.90;60.31;99456.00;4440296;32;20120;-90
2023/07/31 05:43:29;;;;;;;0.00;0.00;;;;;;;20.92;60.31;99450.59;4451751;32;20124;-88
2023/07/31 05:45:55;;;;;;;0.85;0.60;;;;;;;20.86;60.30;99438.69;4440303;32;20411;-88
2023/07/31 05:48:20;;;;;;;0.00;0.00;;;;;;;20.78;60.30;99444.56;4439028;32;20145;-90
2023/07/31 05:50:46;;;;;;;0.00;0.00;;;;;;;20.86;60.30;99448.44;4438750;32;20097;-90
2023/07/31 05:53:11;;;;;;;0.00;0.00;;;;;;;20.92;60.31;99448.78;4438935;32;20466;-88
2023/07/31 05:55:37;;;;;;;0.00;0.00;;;;;;;20.98;60.31;99455.38;4439047;32;20151;-89
2023/07/31 05:58:02;;;;;;;0.00;0.00;;;;;;;21.17;60.32;99460.91;4425881;32;20105;-89
2023/07/31 06:00:27;;;;;;;0.00;0.00;;;;;;;21.21;60.32;99449.09;4451808;32;20165;-89
2023/07/31 06:02:53;;;;;;;0.00;0.00;;;;;;;21.32;60.33;99456.22;4425942;32;20463;-89
2023/07/31 06:05:18;;;;;;;0.00;0.00;;;;;;;21.33;60.34;99447.31;4438336;32;20089;-89
2023/07/31 06:07:44;;;;;;;0.00;0.00;;;;;;;21.36;60.33;99447.91;4455451;32;20108;-89
2023/07/31 06:10:09;;;;;;;33.95;1.65;;;;;;;21.37;60.33;99456.69;4440241;32;20125;-90
2023/07/31 06:12:35;;;;;;;0.00;0.00;;;;;;;21.43;60.34;99461.47;4438775;32;20117;-89
2023/07/31 06:15:01;;;;;;;0.05;0.05;;;;;;;21.63;60.34;99455.38;4451801;32;20251;-89
2023/07/31 06:17:27;;;;;;;0.03;0.00;;;;;;;21.82;60.36;99454.72;4438828;32;20129;-90
2023/07/31 06:19:52;;;;;;;0.10;0.00;;;;;;;21.89;60.37;99461.16;4438863;32;20122;-89
2023/07/31 06:22:18;;;;;;;0.00;0.00;;;;;;;22.11;60.38;99462.06;4438784;32;20131;-90
2023/07/31 06:24:43;;;;;;;0.00;0.00;;;;;;;22.12;60.38;99448.66;4438651;32;20124;-90
2023/07/31 06:27:09;;;;;;;0.00;0.00;;;;;;;22.42;60.40;99453.16;4438874;32;20450;-90
2023/07/31 06:29:34;;;;;;;0.00;0.00;;;;;;;22.48;60.39;99451.81;4451177;32;20142;-90
2023/07/31 06:32:00;;;;;;;0.73;0.73;;;;;;;22.51;60.40;99451.56;4425832;32;20398;-90
2023/07/31 06:34:25;;;;;;;0.00;0.00;;;;;;;22.37;60.39;99448.25;4439524;32;20093;-90
2023/07/31 06:36:50;;;;;;;0.20;0.10;;;;;;;22.26;60.38;99460.78;4425657;32;20161;-90
2023/07/31 06:39:16;;;;;;;3.40;0.85;;;;;;;22.36;60.39;99466.97;4451653;32;20120;-89
2023/07/31 06:41:42;;;;;;;0.00;0.00;;;;;;;22.30;60.38;99463.03;4438675;32;20165;-90
2023/07/31 06:44:08;;;;;;;0.00;0.00;;;;;;;22.18;60.38;99458.75;4425803;32;20117;-89
2023/07/31 06:46:33;;;;;;;0.00;0.00;;;;;;;22.25;60.38;99454.63;4425721;32;20147;-89
2023/07/31 06:48:59;;;;;;;1.15;0.47;;;;;;;22.27;60.39;99470.41;4438635;32;20133;-90
2023/07/31 06:51:24;;;;;;;0.10;0.10;;;;;;;22.20;60.38;99472.72;4451594;32;20105;-90
2023/07/31 06:53:50;;;;;;;0.05;0.05;;;;;;;22.04;60.38;99469.69;4451399;32;20469;-90
2023/07/31 06:56:15;;;;;;;0.00;0.00;;;;;;;22.07;60.38;99479.19;4438682;32;20089;-90
2023/07/31 06:58:40;;;;;;;0.00;0.00;;;;;;;22.16;60.38;99478.41;4438301;32;20082;-89
2023/07/31 07:01:06;;;;;;;0.00;0.00;;;;;;;22.18;60.37;99489.72;4438593;32;20137;-90
2023/07/31 07:03:32;;;;;;;0.00;0.00;;;;;;;22.10;60.39;99490.37;4438618;32;20173;-90
2023/07/31 07:05:57;;;;;;;0.37;0.37;;;;;;;22.20;60.38;99490.44;4425822;32;20086;-90
2023/07/31 07:08:24;;;;;;;0.00;0.00;;;;;;;21.92;60.37;99495.34;4451272;32;20111;-89
2023/07/31 07:10:49;;;;;;;0.00;0.00;;;;;;;22.02;60.38;99491.00;4438435;32;20124;-90
2023/07/31 07:13:15;;;;;;;0.00;0.00;;;;;;;22.18;60.38;99490.56;4438091;32;20418;-89
2023/07/31 07:15:40;;;;;;;0.00;0.00;;;;;;;22.25;60.38;99494.41;4451392;32;20115;-90
2023/07/31 07:18:05;;;;;;;0.00;0.00;;;;;;;22.48;60.40;99504.87;4438348;32;20167;-90
2023/07/31 07:20:31;;;;;;;0.00;0.00;;;;;;;22.72;60.40;99502.78;4438095;32;22353;-90
2023/07/31 07:22:56;;;;;;;0.20;0.10;;;;;;;22.91;60.42;99492.25;4438442;32;20093;-91
2023/07/31 07:25:22;;;;;;;0.10;0.10;;;;;;;22.94;60.42;99493.78;4425581;32;20456;-90
2023/07/31 07:27:47;;;;;;;0.10;0.10;;;;;;;22.88;60.41;99497.00;4438141;32;20442;-90
2023/07/31 07:30:14;;;;;;;0.00;0.00;;;;;;;22.96;60.42;99484.75;4438329;32;20496;-88
2023/07/31 07:32:39;;;;;;;0.03;0.03;;;;;;;22.99;60.42;99494.25;4438381;32;20426;-90
2023/07/31 07:35:06;;;;;;;0.10;0.10;;;;;;;23.24;60.44;99491.13;4451074;32;20148;-90
2023/07/31 07:37:31;;;;;;;0.00;0.00;;;;;;;23.23;60.44;99504.53;4438037;32;20458;-90
2023/07/31 07:39:57;;;;;;;0.52;0.45;;;;;;;22.86;60.41;99502.44;4425353;32;20101;-89
2023/07/31 07:42:22;;;;;;;0.43;0.35;;;;;;;22.87;60.41;99506.75;4438304;32;20122;-89
2023/07/31 07:44:48;;;;;;;0.00;0.00;;;;;;;22.80;60.42;99494.97;4437196;32;20431;-90
2023/07/31 07:47:13;;;;;;;0.00;0.00;;;;;;;22.80;60.42;99496.78;4438358;32;20094;-89
2023/07/31 07:49:39;;;;;;;0.00;0.00;;;;;;;22.82;60.42;99508.16;4438212;32;20458;-89
2023/07/31 07:52:05;;;;;;;0.00;0.00;;;;;;;22.68;60.41;99507.47;4443815;32;20230;-89
2023/07/31 07:54:30;;;;;;;0.00;0.00;;;;;;;22.57;60.41;99504.91;4439173;32;20089;-90
2023/07/31 07:56:56;;;;;;;0.00;0.00;;;;;;;22.83;60.42;99500.06;4437956;32;20093;-90
2023/07/31 07:59:21;;;;;;;0.00;0.00;;;;;;;22.91;60.42;99494.91;4437354;32;28364;-89
2023/07/31 08:01:47;;;;;;;0.00;0.00;;;;;;;23.14;60.43;99486.75;4438130;32;20140;-90
2023/07/31 08:04:12;;;;;;;0.00;0.00;;;;;;;23.19;60.43;99495.16;4439442;32;20412;-89
2023/07/31 08:06:37;;;;;;;0.75;0.45;;;;;;;23.15;60.43;99499.03;4438024;32;20438;-90
2023/07/31 08:09:06;;;;;;;0.00;0.00;;;;;;;23.11;60.43;99494.97;4438155;32;20154;-90
2023/07/31 08:11:34;;;;;;;0.00;0.00;;;;;;;23.04;60.44;99488.53;4438184;32;20496;-89
2023/07/31 08:13:59;;;;;;;0.00;0.00;;;;;;;23.19;60.43;99489.84;4450849;32;20090;-91
2023/07/31 08:16:25;;;;;;;0.00;0.00;;;;;;;23.13;60.44;99499.19;4438135;32;20109;-91
2023/07/31 08:18:50;;;;;;;0.00;0.00;;;;;;;23.27;60.45;99495.31;4437131;32;29043;-89
2023/07/31 08:21:16;;;;;;;0.00;0.00;;;;;;;23.50;60.45;99490.63;4425110;32;20514;-91
2023/07/31 08:23:41;;;;;;;0.15;0.15;;;;;;;23.68;60.47;99499.63;4437721;32;20460;-90
2023/07/31 08:26:06;;;;;;;0.00;0.00;;;;;;;23.65;60.46;99493.72;4450505;32;20094;-91
2023/07/31 08:28:32;;;;;;;0.75;0.68;;;;;;;23.66;60.45;99503.38;4450534;32;20110;-90
2023/07/31 08:30:57;;;;;;;0.00;0.00;;;;;;;23.84;60.47;99496.41;4437759;32;20098;-90
2023/07/31 08:33:23;;;;;;;0.35;0.35;;;;;;;24.05;60.49;99505.06;4437663;32;20146;-89
2023/07/31 08:35:48;;;;;;;0.17;0.10;;;;;;;23.91;60.47;99510.81;4450019;32;23482;-90
2023/07/31 08:38:14;;;;;;;0.10;0.10;;;;;;;24.33;60.49;99502.56;4424653;32;20386;-90
2023/07/31 08:40:39;;;;;;;0.50;0.28;;;;;;;24.50;60.51;99504.47;4437507;32;20379;-91
2023/07/31 08:43:05;;;;;;;0.20;0.20;;;;;;;24.55;60.51;99501.38;4411996;32;20381;-90
2023/07/31 08:45:30;;;;;;;1.65;0.37;;;;;;;24.44;60.50;99494.44;4437555;32;20090;-91
2023/07/31 08:47:57;;;;;;;0.00;0.00;;;;;;;24.70;60.52;99492.81;4411792;32;20120;-90
2023/07/31 08:50:22;;;;;;;0.00;0.00;;;;;;;25.12;60.54;99499.53;4437384;32;20106;-90
2023/07/31 08:52:49;;;;;;;0.45;0.45;;;;;;;24.86;60.53;99499.34;4424375;32;20085;-90
2023/07/31 08:55:14;;;;;;;0.47;0.40;;;;;;;25.19;60.54;99489.97;4437305;32;20089;-90
2023/07/31 08:57:40;;;;;;;0.00;0.00;;;;;;;25.23;60.55;99502.00;4413192;32;20098;-91
2023/07/31 09:00:06;;;;;;;0.35;0.35;;;;;;;24.96;60.53;99494.81;4413756;32;20097;-90
2023/07/31 09:02:38;;;;;;;0.00;0.00;;;;;;;24.95;60.53;99504.63;4426301;32;20121;-90
2023/07/31 09:05:05;;;;;;;0.10;0.10;;;;;;;25.03;60.53;99512.75;4413704;32;20158;-90
2023/07/31 09:07:31;;;;;;;1.00;0.73;;;;;;;25.06;60.53;99493.78;4426608;32;20105;-89
2023/07/31 09:09:56;;;;;;;0.75;0.68;;;;;;;24.88;60.53;99492.06;4426531;32;20378;-91
2023/07/31 09:12:22;;;;;;;0.65;0.32;;;;;;;24.83;60.53;99487.12;4413570;32;20362;-89
2023/07/31 09:14:47;;;;;;;0.10;0.10;;;;;;;24.76;60.53;99486.06;4425827;32;26172;-90
2023/07/31 09:17:12;;;;;;;0.03;0.03;;;;;;;24.91;60.54;99478.44;4426405;32;20509;-88
2023/07/31 09:19:38;;;;;;;0.00;0.00;;;;;;;24.92;60.54;99469.47;4426164;32;20101;-90
2023/07/31 09:22:05;;;;;;;0.05;0.05;;;;;;;25.02;60.54;99480.94;4426309;32;20180;-91
2023/07/31 09:24:31;;;;;;;0.00;0.00;;;;;;;25.33;60.55;99477.00;4439318;32;20086;-90
2023/07/31 09:26:58;;;;;;;0.00;0.00;;;;;;;25.50;60.56;99466.47;4439458;32;20105;-91
2023/07/31 09:29:24;;;;;;;0.00;0.00;;;;;;;25.51;60.56;99469.00;4426559;32;20100;-89
2023/07/31 09:31:50;;;;;;;0.10;0.10;;;;;;;25.76;60.57;99462.09;4426470;32;20255;-90
2023/07/31 09:34:15;;;;;;;0.00;0.00;;;;;;;25.66;60.56;99475.50;4426312;32;20073;-90
2023/07/31 09:36:45;;;;;;;0.43;0.15;;;;;;;25.64;60.57;99464.12;4415555;32;20097;-89
2023/07/31 09:39:11;;;;;;;;;;;;;;;25.77;60.58;99469.09;4441620;32;20092;-89
2023/07/31 09:41:38;;;;;;;0.00;0.00;;;;;;;25.69;60.57;99466.38;4426442;32;19992;-89
2023/07/31 09:44:03;;;;;;;0.00;0.00;;;;;;;25.59;60.56;99469.09;4426383;32;20110;-88
2023/07/31 09:46:29;;;;;;;0.00;0.00;;;;;;;25.38;60.55;99463.22;4440183;32;20508;-88
2023/07/31 09:49:11;;;;;;;3.83;1.42;;;;;;;25.38;60.56;99456.06;4438903;32;20470;-91
2023/07/31 09:51:41;;;;;;;0.00;0.00;;;;;;;25.53;60.56;99450.19;4439123;32;20156;-88
2023/07/31 09:54:11;;;;;;;5.28;1.00;;;;;;;25.64;60.57;99469.47;4438895;32;20104;-89
2023/07/31 09:56:39;;;;;;;;;;;;;;;25.85;60.57;99450.53;4439328;32;20101;-90
2023/07/31 09:59:04;;;;;;;0.00;0.00;;;;;;;25.83;60.58;99455.19;4426120;32;19984;-91
2023/07/31 10:01:29;;;;;;;0.13;0.13;;;;;;;25.85;60.57;99450.53;4425748;32;20478;-90
2023/07/31 10:03:55;;;;;;;0.00;0.00;;;;;;;25.86;60.59;99454.03;4413215;32;20160;-91
2023/07/31 10:06:22;;;;;;;0.47;0.35;;;;;;;25.77;60.58;99463.78;4426101;32;20114;-90
2023/07/31 10:08:48;;;;;;;0.00;0.00;;;;;;;25.66;60.57;99462.16;4439403;32;20166;-91
2023/07/31 10:11:14;;;;;;;0.00;0.00;;;;;;;25.93;60.58;99457.75;4413229;32;20094;-90
2023/07/31 10:13:39;;;;;;;0.00;0.00;;;;;;;26.08;60.59;99458.06;4426207;32;20085;-90
2023/07/31 10:16:04;;;;;;;0.60;0.52;;;;;;;26.12;60.60;99467.41;4425797;32;20137;-90
2023/07/31 10:18:30;;;;;;;0.00;0.00;;;;;;;26.21;60.59;99456.62;4425728;32;20131;-89
2023/07/31 10:20:55;;;;;;;0.22;0.22;;;;;;;26.46;60.61;99455.00;4425912;32;20137;-90
2023/07/31 10:23:22;;;;;;;0.00;0.00;;;;;;;26.58;60.62;99439.56;4413225;32;20101;-90
2023/07/31 10:25:48;;;;;;;0.00;0.00;;;;;;;26.23;60.60;99465.31;4438775;32;20119;-89
2023/07/31 10:28:13;;;;;;;0.00;0.00;;;;;;;26.27;60.60;99455.19;4426031;32;20101;-91
2023/07/31 10:30:38;;;;;;;1.92;0.47;;;;;;;26.21;60.60;99455.81;4425682;32;20085;-90
2023/07/31 10:33:04;;;;;;;0.10;0.10;;;;;;;26.46;60.61;99463.00;4425857;32;20119;-91
2023/07/31 10:35:29;;;;;;;0.00;0.00;;;;;;;26.54;60.61;99446.22;4438821;32;20109;-90
2023/07/31 10:37:55;;;;;;;0.28;0.28;;;;;;;26.44;60.62;99457.00;4435143;32;20090;-88
2023/07/31 10:40:26;;;;;;;1.45;0.90;;;;;;;26.67;60.63;99464.47;4451628;32;20124;-89
2023/07/31 10:42:57;;;;;;;0.00;0.00;;;;;;;26.66;60.62;99449.44;4451746;32;20143;-90
2023/07/31 10:45:58;;;;;;;0.00;0.00;;;;;;;26.84;60.64;99436.84;4438707;32;20170;-90
2023/07/31 10:48:24;;;;;;;0.00;0.00;;;;;;;26.99;60.64;99435.28;4394508;32;20466;-89
2023/07/31 10:50:54;;;;;;;0.00;0.00;;;;;;;26.96;60.65;99446.22;4428977;32;20115;-89
2023/07/31 10:53:30;;;;;;;0.20;0.10;;;;;;;26.83;60.64;99435.16;4451470;32;20138;-89
2023/07/31 10:56:05;;;;;;;0.00;0.00;;;;;;;26.83;60.64;99427.16;4451218;32;20161;-90
2023/07/31 10:58:32;;;;;;;0.00;0.00;;;;;;;27.11;60.64;99430.47;4438552;32;20167;-90
2023/07/31 11:00:59;;;;;;;0.00;0.00;;;;;;;27.36;60.66;99432.19;4438713;32;20157;-90
2023/07/31 11:03:26;;;;;;;0.00;0.00;;;;;;;27.43;60.67;99425.19;4439763;32;20124;-89
2023/07/31 11:06:02;;;;;;;0.00;0.00;;;;;;;27.31;60.66;99431.00;4439877;32;20101;-89
2023/07/31 11:08:36;;;;;;;0.10;0.08;;;;;;;27.44;60.67;99420.66;4451083;32;20105;-89
2023/07/31 11:11:01;;;;;;;0.00;0.00;;;;;;;27.44;60.67;99420.66;4451268;32;20131;-90
2023/07/31 11:13:34;;;;;;;0.00;0.00;;;;;;;27.60;60.68;99420.69;4439614;32;20147;-89
2023/07/31 11:16:00;;;;;;;0.08;0.08;;;;;;;27.61;60.68;99426.88;4450712;32;20241;-89
2023/07/31 11:18:28;;;;;;;0.00;0.00;;;;;;;27.47;60.67;99415.84;4451013;32;20169;-89
2023/07/31 11:20:54;;;;;;;0.00;0.00;;;;;;;27.44;60.67;99407.31;4442421;32;20085;-89
2023/07/31 11:23:19;;;;;;;0.00;0.00;;;;;;;27.60;60.68;99407.31;4439995;32;20115;-88
2023/07/31 11:25:45;;;;;;;0.20;0.20;;;;;;;27.55;60.67;99416.84;4437730;32;22960;-88
2023/07/31 11:28:14;;;;;;;0.00;0.00;;;;;;;27.39;60.67;99402.47;4438620;32;20129;-88
2023/07/31 11:30:43;;;;;;;1.77;0.17;;;;;;;27.57;60.67;99405.00;4425459;32;20136;-88